createdAt,value
2019-03-28T00:01:32.724Z,9.80
2019-03-28T00:04:01.179Z,9.80
2019-03-28T00:06:29.922Z,9.80
2019-03-28T00:08:58.498Z,9.80
2019-03-28T00:11:27.060Z,9.80
2019-03-28T00:13:56.114Z,9.80
2019-03-28T00:16:24.630Z,9.70
2019-03-28T00:18:53.259Z,9.70
2019-03-28T00:21:22.031Z,9.60
2019-03-28T00:23:55.070Z,9.60
2019-03-28T00:26:30.224Z,9.60
2019-03-28T00:28:54.239Z,9.60
2019-03-28T00:31:42.606Z,9.60
2019-03-28T00:34:11.112Z,9.60
2019-03-28T00:36:39.531Z,9.50
2019-03-28T00:39:08.172Z,9.50
2019-03-28T00:41:36.657Z,9.50
2019-03-28T00:44:05.230Z,9.50
2019-03-28T00:46:34.116Z,9.50
2019-03-28T00:49:02.625Z,9.50
2019-03-28T00:51:31.062Z,9.50
2019-03-28T00:53:59.671Z,9.50
2019-03-28T00:56:28.227Z,9.50
2019-03-28T00:58:56.827Z,9.50
2019-03-28T01:01:25.906Z,9.40
2019-03-28T01:03:54.374Z,9.40
2019-03-28T01:06:22.870Z,9.40
2019-03-28T01:08:51.842Z,9.40
2019-03-28T01:11:20.307Z,9.40
2019-03-28T01:13:48.873Z,9.30
2019-03-28T01:16:18.330Z,9.40
2019-03-28T01:18:46.870Z,9.30
2019-03-28T01:21:15.262Z,9.30
2019-03-28T01:23:43.803Z,9.30
2019-03-28T01:26:13.762Z,9.30
2019-03-28T01:28:42.206Z,9.30
2019-03-28T01:31:10.787Z,9.30
2019-03-28T01:33:39.226Z,9.30
2019-03-28T01:36:07.677Z,9.30
2019-03-28T01:38:36.569Z,9.30
2019-03-28T01:41:05.101Z,9.30
2019-03-28T01:43:33.549Z,9.20
2019-03-28T01:46:02.390Z,9.20
2019-03-28T01:48:30.941Z,9.20
2019-03-28T01:50:59.456Z,9.20
2019-03-28T01:53:28.667Z,9.20
2019-03-28T01:55:57.157Z,9.20
2019-03-28T01:58:25.700Z,9.30
2019-03-28T02:00:54.505Z,9.30
2019-03-28T02:03:23.266Z,9.30
2019-03-28T02:05:56.293Z,9.20
2019-03-28T02:08:25.074Z,9.20
2019-03-28T02:10:53.796Z,9.20
2019-03-28T02:13:22.393Z,9.20
2019-03-28T02:15:50.822Z,9.20
2019-03-28T02:18:19.605Z,9.20
2019-03-28T02:20:48.422Z,9.30
2019-03-28T02:23:16.882Z,9.30
2019-03-28T02:25:45.427Z,9.30
2019-03-28T02:28:14.108Z,9.20
2019-03-28T02:30:42.563Z,9.20
2019-03-28T02:33:10.993Z,9.30
2019-03-28T02:35:42.760Z,9.30
2019-03-28T02:38:11.202Z,9.30
2019-03-28T02:40:59.266Z,9.20
2019-03-28T02:43:27.820Z,9.20
2019-03-28T02:45:56.590Z,9.30
2019-03-28T02:48:25.753Z,9.30
2019-03-28T02:50:54.435Z,9.30
2019-03-28T02:53:23.083Z,9.30
2019-03-28T02:55:51.651Z,9.30
2019-03-28T02:58:20.212Z,9.30
2019-03-28T03:00:48.747Z,9.30
2019-03-28T03:03:17.405Z,9.30
2019-03-28T03:05:45.910Z,9.30
2019-03-28T03:08:14.502Z,9.30
2019-03-28T03:10:43.993Z,9.30
2019-03-28T03:13:12.707Z,9.30
2019-03-28T03:15:41.286Z,9.30
2019-03-28T03:18:10.092Z,9.20
2019-03-28T03:20:38.577Z,9.20
2019-03-28T03:23:07.344Z,9.20
2019-03-28T03:25:36.093Z,9.20
2019-03-28T03:28:04.661Z,9.20
2019-03-28T03:30:33.130Z,9.20
2019-03-28T03:33:01.802Z,9.20
2019-03-28T03:35:30.217Z,9.20
2019-03-28T03:37:58.775Z,9.20
2019-03-28T03:40:29.397Z,9.00
2019-03-28T03:42:58.617Z,9.00
2019-03-28T03:45:27.294Z,9.00
2019-03-28T03:47:55.907Z,9.10
2019-03-28T03:50:29.718Z,9.10
2019-03-28T03:52:59.250Z,9.10
2019-03-28T03:55:28.147Z,9.10
2019-03-28T03:58:13.650Z,9.10
2019-03-28T04:00:34.877Z,9.10
2019-03-28T04:03:03.455Z,9.10
2019-03-28T04:05:32.220Z,8.90
2019-03-28T04:08:00.919Z,8.90
2019-03-28T04:10:29.652Z,8.90
2019-03-28T04:12:58.201Z,8.80
2019-03-28T04:15:28.516Z,8.80
2019-03-28T04:17:57.071Z,8.80
2019-03-28T04:20:25.938Z,8.70
2019-03-28T04:22:56.013Z,8.80
2019-03-28T04:25:24.501Z,8.80
2019-03-28T04:27:53.365Z,8.80
2019-03-28T04:30:23.094Z,8.80
2019-03-28T04:32:51.651Z,8.80
2019-03-28T04:35:20.445Z,8.80
2019-03-28T04:37:49.395Z,8.80
2019-03-28T04:40:24.374Z,8.80
2019-03-28T04:42:53.184Z,8.80
2019-03-28T04:45:21.686Z,8.80
2019-03-28T04:47:50.227Z,8.90
2019-03-28T04:50:18.946Z,8.90
2019-03-28T04:52:47.440Z,8.90
2019-03-28T04:55:15.939Z,8.80
2019-03-28T04:57:44.913Z,8.80
2019-03-28T05:00:13.989Z,8.80
2019-03-28T05:02:45.817Z,8.80
2019-03-28T05:05:13.101Z,8.80
2019-03-28T05:07:42.358Z,8.80
2019-03-28T05:10:11.505Z,8.80
2019-03-28T05:12:40.399Z,8.80
2019-03-28T05:15:10.001Z,8.80
2019-03-28T05:17:38.500Z,8.70
2019-03-28T05:20:07.573Z,8.70
2019-03-28T05:22:36.370Z,8.90
2019-03-28T05:25:06.039Z,8.90
2019-03-28T05:27:34.838Z,8.90
2019-03-28T05:30:06.653Z,8.90
2019-03-28T05:32:35.469Z,8.90
2019-03-28T05:35:05.945Z,8.90
2019-03-28T05:37:34.404Z,8.90
2019-03-28T05:40:07.367Z,8.90
2019-03-28T05:42:35.906Z,8.90
2019-03-28T05:45:06.686Z,8.90
2019-03-28T05:47:35.530Z,8.80
2019-03-28T05:50:06.213Z,8.90
2019-03-28T05:52:34.691Z,8.70
2019-03-28T05:55:05.365Z,8.60
2019-03-28T05:57:33.791Z,8.60
2019-03-28T06:00:02.195Z,8.50
2019-03-28T06:02:30.806Z,8.50
2019-03-28T06:04:59.257Z,8.50
2019-03-28T06:07:27.754Z,8.50
2019-03-28T06:09:56.567Z,8.50
2019-03-28T06:12:24.998Z,8.50
2019-03-28T06:14:53.510Z,8.50
2019-03-28T06:17:24.817Z,8.50
2019-03-28T06:19:53.248Z,8.50
2019-03-28T06:22:21.672Z,8.50
2019-03-28T06:24:50.475Z,8.50
2019-03-28T06:27:19.160Z,8.50
2019-03-28T06:29:47.615Z,8.50
2019-03-28T06:32:16.229Z,8.50
2019-03-28T06:34:44.673Z,8.50
2019-03-28T06:37:13.094Z,8.50
2019-03-28T06:39:41.674Z,8.50
2019-03-28T06:42:10.191Z,8.50
2019-03-28T06:44:38.749Z,8.60
2019-03-28T06:47:07.891Z,8.60
2019-03-28T06:49:36.414Z,8.70
2019-03-28T06:52:06.455Z,8.80
2019-03-28T06:54:36.424Z,8.80
2019-03-28T06:57:04.859Z,8.90
2019-03-28T06:59:37.627Z,9.00
2019-03-28T07:02:03.825Z,9.10
2019-03-28T07:04:32.274Z,9.10
2019-03-28T07:07:00.713Z,9.20
2019-03-28T07:09:29.283Z,9.30
2019-03-28T07:11:57.699Z,9.40
2019-03-28T07:14:26.166Z,9.30
2019-03-28T07:16:54.856Z,9.30
2019-03-28T07:19:23.286Z,9.30
2019-03-28T07:21:51.817Z,9.30
2019-03-28T07:24:20.477Z,9.40
2019-03-28T07:26:48.973Z,9.40
2019-03-28T07:29:17.524Z,9.50
2019-03-28T07:31:46.288Z,9.60
2019-03-28T07:34:14.917Z,9.70
2019-03-28T07:36:43.420Z,9.80
2019-03-28T07:39:12.275Z,9.80
2019-03-28T07:41:40.796Z,9.90
2019-03-28T07:44:09.404Z,9.90
2019-03-28T07:46:38.172Z,9.90
2019-03-28T07:49:06.721Z,10.00
2019-03-28T07:51:35.140Z,9.80
2019-03-28T07:54:04.327Z,9.80
2019-03-28T07:56:32.764Z,9.80
2019-03-28T07:59:01.466Z,9.90
2019-03-28T08:01:31.251Z,9.90
2019-03-28T08:03:59.691Z,10.00
2019-03-28T08:06:28.474Z,10.00
2019-03-28T08:08:57.772Z,10.10
2019-03-28T08:11:27.408Z,10.20
2019-03-28T08:13:55.999Z,10.30
2019-03-28T08:16:24.824Z,10.30
2019-03-28T08:18:53.270Z,10.30
2019-03-28T08:21:21.958Z,10.30
2019-03-28T08:23:50.872Z,10.50
2019-03-28T08:26:19.302Z,10.60
2019-03-28T08:28:47.762Z,10.70
2019-03-28T08:31:16.535Z,10.80
2019-03-28T08:33:45.198Z,10.90
2019-03-28T08:36:15.082Z,11.00
2019-03-28T08:38:45.682Z,10.80
2019-03-28T08:41:14.175Z,10.90
2019-03-28T08:43:42.743Z,11.00
2019-03-28T08:46:11.637Z,10.90
2019-03-28T08:48:40.134Z,10.90
2019-03-28T08:51:08.580Z,10.90
2019-03-28T08:53:37.096Z,10.90
2019-03-28T08:56:05.597Z,11.10
2019-03-28T08:58:37.853Z,11.20
2019-03-28T09:01:06.356Z,11.20
2019-03-28T09:03:34.834Z,11.20
2019-03-28T09:06:03.266Z,11.40
2019-03-28T09:08:31.886Z,11.20
2019-03-28T09:11:00.398Z,11.10
2019-03-28T09:13:28.827Z,11.10
2019-03-28T09:15:57.534Z,11.20
2019-03-28T09:18:25.955Z,11.30
2019-03-28T09:20:54.414Z,11.30
2019-03-28T09:23:24.659Z,11.40
2019-03-28T09:25:53.138Z,11.50
2019-03-28T09:28:21.635Z,11.70
2019-03-28T09:30:50.234Z,11.50
2019-03-28T09:33:18.881Z,11.60
2019-03-28T09:35:47.350Z,11.60
2019-03-28T09:38:16.015Z,11.70
2019-03-28T09:40:44.645Z,12.00
2019-03-28T09:43:13.153Z,12.00
2019-03-28T09:45:42.081Z,12.20
2019-03-28T09:48:11.856Z,12.30
2019-03-28T09:50:40.574Z,12.40
2019-03-28T09:53:09.182Z,12.50
2019-03-28T09:55:37.645Z,12.40
2019-03-28T09:58:06.148Z,12.50
2019-03-28T10:00:34.944Z,12.70
2019-03-28T10:03:03.426Z,12.90
2019-03-28T10:05:31.899Z,13.00
2019-03-28T10:08:00.484Z,13.20
2019-03-28T10:10:28.943Z,13.50
2019-03-28T10:12:57.536Z,13.80
2019-03-28T10:15:26.213Z,13.70
2019-03-28T10:17:54.875Z,13.50
2019-03-28T10:20:23.716Z,13.50
2019-03-28T10:22:52.461Z,13.30
2019-03-28T10:25:20.959Z,13.10
2019-03-28T10:27:49.485Z,13.00
2019-03-28T10:30:21.149Z,13.10
2019-03-28T10:32:49.923Z,13.30
2019-03-28T10:35:27.856Z,13.50
2019-03-28T10:37:56.305Z,14.00
2019-03-28T10:40:24.790Z,14.40
2019-03-28T10:42:53.537Z,14.10
2019-03-28T10:45:22.042Z,14.20
2019-03-28T10:47:50.488Z,14.40
2019-03-28T10:50:19.220Z,14.60
2019-03-28T10:52:47.701Z,14.80
2019-03-28T10:55:16.735Z,14.60
2019-03-28T10:57:45.658Z,14.60
2019-03-28T11:00:23.976Z,14.90
2019-03-28T11:02:44.991Z,14.80
2019-03-28T11:05:14.487Z,14.60
2019-03-28T11:07:43.143Z,14.90
2019-03-28T11:10:11.686Z,15.30
2019-03-28T11:12:40.434Z,15.50
2019-03-28T11:15:09.701Z,15.10
2019-03-28T11:17:38.205Z,14.30
2019-03-28T11:20:40.310Z,14.40
2019-03-28T11:23:08.885Z,14.70
2019-03-28T11:25:37.415Z,15.00
2019-03-28T11:28:07.248Z,15.30
2019-03-28T11:30:35.861Z,15.30
2019-03-28T11:33:06.403Z,15.10
2019-03-28T11:35:36.791Z,15.30
2019-03-28T11:38:05.299Z,15.40
2019-03-28T11:40:33.967Z,15.60
2019-03-28T11:43:03.059Z,15.60
2019-03-28T11:45:31.646Z,15.80
2019-03-28T11:48:00.272Z,15.80
2019-03-28T11:50:29.785Z,15.60
2019-03-28T11:52:58.370Z,15.70
2019-03-28T11:55:26.807Z,15.90
2019-03-28T11:57:57.046Z,16.10
2019-03-28T12:00:25.550Z,16.20
2019-03-28T12:02:55.045Z,16.30
2019-03-28T12:05:23.912Z,16.40
2019-03-28T12:07:52.391Z,16.40
2019-03-28T12:10:20.957Z,16.50
2019-03-28T12:12:49.895Z,16.70
2019-03-28T12:15:18.462Z,16.70
2019-03-28T12:17:47.098Z,16.50
2019-03-28T12:20:15.882Z,16.20
2019-03-28T12:22:45.828Z,15.90
2019-03-28T12:25:14.715Z,16.40
2019-03-28T12:27:44.066Z,16.60
2019-03-28T12:30:15.965Z,16.70
2019-03-28T12:32:43.893Z,16.90
2019-03-28T12:35:12.810Z,17.30
2019-03-28T12:37:41.545Z,17.40
2019-03-28T12:40:10.652Z,17.70
2019-03-28T12:42:39.455Z,17.90
2019-03-28T12:45:10.538Z,18.10
2019-03-28T12:47:42.664Z,18.00
2019-03-28T12:50:11.670Z,18.10
2019-03-28T12:52:41.279Z,18.00
2019-03-28T12:55:10.215Z,18.40
2019-03-28T12:57:38.813Z,18.50
2019-03-28T13:00:08.996Z,17.80
2019-03-28T13:02:37.555Z,17.80
2019-03-28T13:05:08.946Z,18.40
2019-03-28T13:07:37.543Z,18.50
2019-03-28T13:10:09.144Z,18.30
2019-03-28T13:12:38.000Z,17.80
2019-03-28T13:15:06.990Z,17.40
2019-03-28T13:17:35.709Z,17.00
2019-03-28T13:20:07.121Z,16.60
2019-03-28T13:22:35.602Z,16.70
2019-03-28T13:25:06.421Z,16.70
2019-03-28T13:27:36.556Z,16.80
2019-03-28T13:30:10.875Z,16.60
2019-03-28T13:32:42.040Z,16.30
2019-03-28T13:35:10.625Z,16.20
2019-03-28T13:37:39.066Z,15.90
2019-03-28T13:40:15.609Z,15.80
2019-03-28T13:42:44.132Z,15.80
2019-03-28T13:45:13.158Z,15.60
2019-03-28T13:47:41.730Z,15.30
2019-03-28T13:50:11.499Z,14.90
2019-03-28T13:52:41.381Z,14.70
2019-03-28T13:55:10.267Z,14.70
2019-03-28T13:57:38.758Z,14.90
2019-03-28T14:00:09.016Z,14.80
2019-03-28T14:02:37.789Z,14.70
2019-03-28T14:05:08.067Z,14.50
2019-03-28T14:07:36.847Z,14.60
2019-03-28T14:10:09.322Z,14.80
2019-03-28T14:12:38.303Z,14.50
2019-03-28T14:15:07.884Z,14.40
2019-03-28T14:17:37.392Z,14.50
2019-03-28T14:20:07.874Z,14.50
2019-03-28T14:22:36.995Z,14.50
2019-03-28T14:25:06.585Z,14.50
2019-03-28T14:27:35.074Z,14.50
2019-03-28T14:30:04.599Z,14.40
2019-03-28T14:32:33.347Z,14.40
2019-03-28T14:35:02.074Z,14.30
2019-03-28T14:37:30.590Z,14.30
2019-03-28T14:39:59.891Z,14.20
2019-03-28T14:42:29.191Z,14.20
2019-03-28T14:44:57.598Z,14.20
2019-03-28T14:47:27.030Z,14.20
2019-03-28T14:49:55.577Z,14.20
2019-03-28T14:52:24.447Z,14.30
2019-03-28T14:54:53.600Z,14.30
2019-03-28T14:57:22.286Z,14.30
2019-03-28T14:59:51.536Z,14.20
2019-03-28T15:02:20.995Z,14.20
2019-03-28T15:04:49.492Z,14.10
2019-03-28T15:07:17.949Z,14.00
2019-03-28T15:09:46.641Z,13.90
2019-03-28T15:12:15.141Z,13.90
2019-03-28T15:14:45.179Z,13.90
2019-03-28T15:17:14.336Z,13.90
2019-03-28T15:19:42.868Z,14.00
2019-03-28T15:22:12.547Z,14.00
2019-03-28T15:24:41.676Z,14.00
2019-03-28T15:27:10.105Z,13.90
2019-03-28T15:29:38.654Z,13.90
2019-03-28T15:32:07.996Z,13.90
2019-03-28T15:34:37.969Z,13.90
2019-03-28T15:37:06.500Z,13.80
2019-03-28T15:39:35.026Z,13.70
2019-03-28T15:42:03.542Z,13.80
2019-03-28T15:44:32.082Z,13.80
2019-03-28T15:47:00.669Z,13.60
2019-03-28T15:49:32.231Z,13.60
2019-03-28T15:52:03.228Z,13.70
2019-03-28T15:54:31.242Z,13.70
2019-03-28T15:56:59.727Z,13.70
2019-03-28T15:59:28.170Z,13.70
2019-03-28T16:01:59.846Z,13.80
2019-03-28T16:04:27.021Z,13.80
2019-03-28T16:06:55.579Z,13.70
2019-03-28T16:09:24.081Z,13.60
2019-03-28T16:12:02.467Z,13.70
2019-03-28T16:14:22.801Z,13.70
2019-03-28T16:16:51.627Z,13.60
2019-03-28T16:19:20.320Z,13.60
2019-03-28T16:21:48.748Z,13.60
2019-03-28T16:24:17.359Z,13.50
2019-03-28T16:26:45.784Z,13.40
2019-03-28T16:29:14.409Z,13.30
2019-03-28T16:31:43.091Z,13.30
2019-03-28T16:34:11.513Z,13.20
2019-03-28T16:36:39.990Z,13.10
2019-03-28T16:39:08.749Z,13.10
2019-03-28T16:41:37.346Z,13.20
2019-03-28T16:44:05.904Z,13.20
2019-03-28T16:46:34.931Z,13.20
2019-03-28T16:49:03.546Z,13.20
2019-03-28T16:51:32.157Z,13.20
2019-03-28T16:54:01.660Z,13.10
2019-03-28T16:56:30.405Z,13.10
2019-03-28T16:58:58.958Z,13.10
2019-03-28T17:01:27.758Z,13.10
2019-03-28T17:03:56.329Z,13.10
2019-03-28T17:06:24.884Z,13.00
2019-03-28T17:08:53.970Z,13.00
2019-03-28T17:11:23.651Z,13.00
2019-03-28T17:13:52.201Z,13.00
2019-03-28T17:16:21.115Z,13.00
2019-03-28T17:18:49.632Z,12.90
2019-03-28T17:21:18.151Z,12.90
2019-03-28T17:23:46.914Z,12.90
2019-03-28T17:26:15.469Z,12.90
2019-03-28T17:28:43.956Z,12.90
2019-03-28T17:31:12.759Z,12.90
2019-03-28T17:33:41.244Z,12.80
2019-03-28T17:36:09.808Z,12.80
2019-03-28T17:38:39.017Z,12.80
2019-03-28T17:41:08.477Z,12.80
2019-03-28T17:43:36.953Z,12.80
2019-03-28T17:46:05.666Z,12.80
2019-03-28T17:48:34.166Z,12.70
2019-03-28T17:51:02.749Z,12.70
2019-03-28T17:53:32.478Z,12.60
2019-03-28T17:56:01.045Z,12.60
2019-03-28T17:58:29.511Z,12.60
2019-03-28T18:00:58.099Z,12.60
2019-03-28T18:03:31.485Z,12.60
2019-03-28T18:05:58.297Z,12.50
2019-03-28T18:08:27.349Z,12.40
2019-03-28T18:10:55.972Z,12.30
2019-03-28T18:13:25.047Z,12.30
2019-03-28T18:15:54.298Z,12.30
2019-03-28T18:18:22.824Z,12.30
2019-03-28T18:20:51.420Z,12.40
2019-03-28T18:23:22.011Z,12.40
2019-03-28T18:25:50.437Z,12.40
2019-03-28T18:28:19.108Z,12.40
2019-03-28T18:30:48.511Z,12.30
2019-03-28T18:33:17.038Z,12.30
2019-03-28T18:35:45.588Z,12.20
2019-03-28T18:38:14.540Z,12.10
2019-03-28T18:40:43.031Z,12.10
2019-03-28T18:43:11.869Z,12.10
2019-03-28T18:45:41.372Z,12.00
2019-03-28T18:48:11.268Z,12.00
2019-03-28T18:50:41.225Z,12.00
2019-03-28T18:53:10.152Z,11.90
2019-03-28T18:55:38.645Z,11.90
2019-03-28T18:58:07.087Z,12.00
2019-03-28T19:00:35.739Z,11.90
2019-03-28T19:03:04.161Z,11.90
2019-03-28T19:05:32.623Z,11.80
2019-03-28T19:08:01.835Z,11.80
2019-03-28T19:10:30.929Z,11.90
2019-03-28T19:12:59.459Z,11.90
2019-03-28T19:15:28.162Z,11.80
2019-03-28T19:17:56.613Z,11.80
2019-03-28T19:20:25.151Z,11.80
2019-03-28T19:22:54.071Z,11.80
2019-03-28T19:25:23.158Z,11.80
2019-03-28T19:27:51.802Z,11.60
2019-03-28T19:30:34.377Z,11.60
2019-03-28T19:33:06.505Z,11.50
2019-03-28T19:35:34.924Z,11.40
2019-03-28T19:38:04.574Z,11.40
2019-03-28T19:40:33.133Z,11.30
2019-03-28T19:43:01.615Z,11.30
2019-03-28T19:45:36.036Z,11.30
2019-03-28T19:48:06.408Z,11.20
2019-03-28T19:50:34.915Z,11.10
2019-03-28T19:53:06.427Z,11.10
2019-03-28T19:55:39.690Z,11.00
2019-03-28T19:58:07.077Z,11.00
2019-03-28T20:00:35.579Z,10.90
2019-03-28T20:03:04.562Z,10.90
2019-03-28T20:05:46.322Z,10.80
2019-03-28T20:08:14.665Z,10.80
2019-03-28T20:10:34.014Z,10.70
2019-03-28T20:13:05.251Z,10.70
2019-03-28T20:15:33.355Z,10.60
2019-03-28T20:18:02.987Z,10.50
2019-03-28T20:20:31.507Z,10.50
2019-03-28T20:23:00.191Z,10.40
2019-03-28T20:25:29.282Z,10.30
2019-03-28T20:27:57.807Z,10.30
2019-03-28T20:30:27.183Z,10.10
2019-03-28T20:32:56.948Z,10.10
2019-03-28T20:35:25.434Z,10.00
2019-03-28T20:37:53.888Z,9.90
2019-03-28T20:40:22.695Z,9.90
2019-03-28T20:42:51.116Z,9.80
2019-03-28T20:45:21.116Z,9.80
2019-03-28T20:47:50.873Z,9.80
2019-03-28T20:50:20.166Z,9.70
2019-03-28T20:52:48.604Z,9.60
2019-03-28T20:55:17.270Z,9.60
2019-03-28T20:57:45.700Z,9.50
2019-03-28T21:00:14.541Z,9.40
2019-03-28T21:02:43.191Z,9.40
2019-03-28T21:05:14.416Z,9.40
2019-03-28T21:07:42.122Z,9.40
2019-03-28T21:10:25.797Z,9.40
2019-03-28T21:12:54.870Z,9.40
2019-03-28T21:15:23.311Z,9.30
2019-03-28T21:17:51.893Z,9.30
2019-03-28T21:20:20.338Z,9.30
2019-03-28T21:22:48.759Z,9.20
2019-03-28T21:25:18.213Z,9.20
2019-03-28T21:27:46.791Z,9.20
2019-03-28T21:30:18.321Z,9.10
2019-03-28T21:32:55.348Z,9.10
2019-03-28T21:35:16.054Z,9.10
2019-03-28T21:37:44.462Z,9.00
2019-03-28T21:40:14.904Z,9.00
2019-03-28T21:42:43.333Z,8.90
2019-03-28T21:45:12.622Z,8.90
2019-03-28T21:47:41.278Z,8.80
2019-03-28T21:50:09.977Z,8.80
2019-03-28T21:52:38.482Z,8.90
2019-03-28T21:55:07.716Z,8.80
2019-03-28T21:57:37.307Z,8.80
2019-03-28T22:00:11.616Z,8.70
2019-03-28T22:02:40.169Z,8.60
2019-03-28T22:05:09.167Z,8.60
2019-03-28T22:07:37.679Z,8.50
2019-03-28T22:10:08.915Z,8.50
2019-03-28T22:12:37.581Z,8.40
2019-03-28T22:15:07.611Z,8.40
2019-03-28T22:17:36.472Z,8.40
2019-03-28T22:20:06.766Z,8.40
2019-03-28T22:22:36.127Z,8.30
2019-03-28T22:25:06.318Z,8.30
2019-03-28T22:27:34.734Z,8.30
2019-03-28T22:30:04.342Z,8.30
2019-03-28T22:32:32.770Z,8.30
2019-03-28T22:35:01.229Z,8.30
2019-03-28T22:37:30.090Z,8.30
2019-03-28T22:39:58.606Z,8.40
2019-03-28T22:42:27.172Z,8.40
2019-03-28T22:44:55.881Z,8.40
2019-03-28T22:47:24.386Z,8.30
2019-03-28T22:49:54.023Z,8.40
2019-03-28T22:52:22.858Z,8.40
2019-03-28T22:54:51.345Z,8.40
2019-03-28T22:57:19.778Z,8.40
2019-03-28T22:59:48.478Z,8.40
2019-03-28T23:02:16.889Z,8.40
2019-03-28T23:04:45.462Z,8.40
2019-03-28T23:07:14.585Z,8.40
2019-03-28T23:09:43.471Z,8.50
2019-03-28T23:12:11.897Z,8.50
2019-03-28T23:14:40.520Z,8.50
2019-03-28T23:17:09.042Z,8.50
2019-03-28T23:19:37.488Z,8.50
2019-03-28T23:22:07.280Z,8.50
2019-03-28T23:24:38.966Z,8.50
2019-03-28T23:27:06.771Z,8.50
2019-03-28T23:29:36.183Z,8.50
2019-03-28T23:32:05.225Z,8.50
2019-03-28T23:34:33.674Z,8.40
2019-03-28T23:37:02.468Z,8.40
2019-03-28T23:39:30.982Z,8.30
2019-03-28T23:41:59.449Z,8.30
2019-03-28T23:44:28.338Z,8.30
2019-03-28T23:46:56.762Z,8.20
2019-03-28T23:49:25.355Z,8.30
2019-03-28T23:51:54.057Z,8.20
2019-03-28T23:54:22.554Z,8.10
2019-03-28T23:56:50.962Z,8.00
2019-03-28T23:59:19.597Z,8.00
